sensor_id;sensor_type;location;lat;lon;timestamp;pressure;altitude;pressure_sealevel;temperature;humidity
56038;BME280;41907;47.848;9.000;2024-03-06T00:02:09;95707.31;;;6.12;100.00
56038;BME280;41907;47.848;9.000;2024-03-06T00:04:34;95704.16;;;6.10;100.00
56038;BME280;41907;47.848;9.000;2024-03-06T00:07:00;95711.84;;;6.07;100.00
56038;BME280;41907;47.848;9.000;2024-03-06T00:09:26;95712.66;;;6.07;100.00
56038;BME280;41907;47.848;9.000;2024-03-06T00:11:54;95714.00;;;6.05;100.00
56038;BME280;41907;47.848;9.000;2024-03-06T00:14:21;95718.47;;;6.09;100.00
56038;BME280;41907;47.848;9.000;2024-03-06T00:16:50;95713.16;;;6.09;100.00
56038;BME280;41907;47.848;9.000;2024-03-06T00:19:19;95709.97;;;6.12;100.00
56038;BME280;41907;47.848;9.000;2024-03-06T00:21:45;95715.03;;;6.09;100.00
56038;BME280;41907;47.848;9.000;2024-03-06T00:24:14;95716.34;;;6.11;100.00
56038;BME280;41907;47.848;9.000;2024-03-06T00:26:43;95718.97;;;6.11;100.00
56038;BME280;41907;47.848;9.000;2024-03-06T00:29:10;95724.88;;;6.03;100.00
56038;BME280;41907;47.848;9.000;2024-03-06T00:31:35;95728.00;;;6.05;100.00
56038;BME280;41907;47.848;9.000;2024-03-06T00:34:00;95738.19;;;5.93;100.00
56038;BME280;41907;47.848;9.000;2024-03-06T00:36:26;95737.19;;;5.84;100.00
56038;BME280;41907;47.848;9.000;2024-03-06T00:38:51;95740.13;;;5.77;100.00
56038;BME280;41907;47.848;9.000;2024-03-06T00:41:16;95738.78;;;5.80;100.00
56038;BME280;41907;47.848;9.000;2024-03-06T00:43:42;95744.88;;;5.80;100.00
56038;BME280;41907;47.848;9.000;2024-03-06T00:46:07;95746.41;;;5.86;100.00
56038;BME280;41907;47.848;9.000;2024-03-06T00:48:32;95741.41;;;5.90;100.00
56038;BME280;41907;47.848;9.000;2024-03-06T00:50:58;95744.31;;;5.88;100.00
56038;BME280;41907;47.848;9.000;2024-03-06T00:53:23;95741.91;;;5.87;100.00
56038;BME280;41907;47.848;9.000;2024-03-06T00:55:49;95742.69;;;5.92;100.00
56038;BME280;41907;47.848;9.000;2024-03-06T00:58:15;95749.84;;;5.92;100.00
56038;BME280;41907;47.848;9.000;2024-03-06T01:00:40;95754.88;;;5.93;100.00
56038;BME280;41907;47.848;9.000;2024-03-06T01:03:05;95741.91;;;5.92;100.00
56038;BME280;41907;47.848;9.000;2024-03-06T01:05:31;95753.56;;;5.91;100.00
56038;BME280;41907;47.848;9.000;2024-03-06T01:07:56;95750.63;;;5.87;100.00
56038;BME280;41907;47.848;9.000;2024-03-06T01:10:22;95750.13;;;5.90;100.00
56038;BME280;41907;47.848;9.000;2024-03-06T01:12:48;95750.91;;;5.91;100.00
56038;BME280;41907;47.848;9.000;2024-03-06T01:15:13;95763.38;;;5.90;100.00
56038;BME280;41907;47.848;9.000;2024-03-06T01:17:39;95759.38;;;5.93;100.00
56038;BME280;41907;47.848;9.000;2024-03-06T01:20:05;95759.91;;;5.90;100.00
56038;BME280;41907;47.848;9.000;2024-03-06T01:22:33;95763.09;;;5.92;100.00
56038;BME280;41907;47.848;9.000;2024-03-06T01:24:58;95762.50;;;5.95;100.00
56038;BME280;41907;47.848;9.000;2024-03-06T01:27:24;95761.97;;;5.98;100.00
56038;BME280;41907;47.848;9.000;2024-03-06T01:29:50;95763.03;;;5.97;100.00
56038;BME280;41907;47.848;9.000;2024-03-06T01:32:16;95766.75;;;5.96;100.00
56038;BME280;41907;47.848;9.000;2024-03-06T01:34:41;95764.09;;;5.96;100.00
56038;BME280;41907;47.848;9.000;2024-03-06T01:37:06;95759.13;;;5.89;100.00
56038;BME280;41907;47.848;9.000;2024-03-06T01:39:32;95765.16;;;5.95;100.00
56038;BME280;41907;47.848;9.000;2024-03-06T01:41:58;95761.44;;;5.96;100.00
56038;BME280;41907;47.848;9.000;2024-03-06T01:44:23;95765.75;;;5.92;100.00
56038;BME280;41907;47.848;9.000;2024-03-06T01:46:49;95765.50;;;5.88;100.00
56038;BME280;41907;47.848;9.000;2024-03-06T01:49:15;95758.63;;;5.82;100.00
56038;BME280;41907;47.848;9.000;2024-03-06T01:51:42;95770.00;;;5.88;100.00
56038;BME280;41907;47.848;9.000;2024-03-06T01:54:10;95766.00;;;5.90;100.00
56038;BME280;41907;47.848;9.000;2024-03-06T01:56:38;95761.22;;;5.87;100.00
56038;BME280;41907;47.848;9.000;2024-03-06T01:59:06;95763.66;;;5.84;100.00
56038;BME280;41907;47.848;9.000;2024-03-06T02:01:32;95760.19;;;5.88;100.00
56038;BME280;41907;47.848;9.000;2024-03-06T02:03:59;95757.28;;;5.90;100.00
56038;BME280;41907;47.848;9.000;2024-03-06T02:06:25;95748.25;;;5.86;100.00
56038;BME280;41907;47.848;9.000;2024-03-06T02:08:50;95744.06;;;5.85;100.00
56038;BME280;41907;47.848;9.000;2024-03-06T02:11:16;95745.13;;;5.84;100.00
56038;BME280;41907;47.848;9.000;2024-03-06T02:13:42;95743.81;;;5.81;100.00
56038;BME280;41907;47.848;9.000;2024-03-06T02:16:09;95753.59;;;5.81;100.00
56038;BME280;41907;47.848;9.000;2024-03-06T02:18:34;95753.72;;;5.66;100.00
56038;BME280;41907;47.848;9.000;2024-03-06T02:20:59;95756.38;;;5.66;100.00
56038;BME280;41907;47.848;9.000;2024-03-06T02:23:25;95756.13;;;5.62;100.00
56038;BME280;41907;47.848;9.000;2024-03-06T02:25:50;95758.25;;;5.60;100.00
56038;BME280;41907;47.848;9.000;2024-03-06T02:28:16;95756.41;;;5.60;100.00
56038;BME280;41907;47.848;9.000;2024-03-06T02:30:42;95752.97;;;5.60;100.00
56038;BME280;41907;47.848;9.000;2024-03-06T02:33:07;95758.44;;;5.69;100.00
56038;BME280;41907;47.848;9.000;2024-03-06T02:35:34;95759.25;;;5.69;100.00
56038;BME280;41907;47.848;9.000;2024-03-06T02:38:01;95759.50;;;5.68;100.00
56038;BME280;41907;47.848;9.000;2024-03-06T02:40:28;95751.31;;;5.69;100.00
56038;BME280;41907;47.848;9.000;2024-03-06T02:42:54;95746.81;;;5.70;100.00
56038;BME280;41907;47.848;9.000;2024-03-06T02:45:19;95755.25;;;5.72;100.00
56038;BME280;41907;47.848;9.000;2024-03-06T02:47:45;95759.75;;;5.71;100.00
56038;BME280;41907;47.848;9.000;2024-03-06T02:50:10;95753.22;;;5.64;100.00
56038;BME280;41907;47.848;9.000;2024-03-06T02:52:35;95760.09;;;5.65;100.00
56038;BME280;41907;47.848;9.000;2024-03-06T02:55:02;95761.66;;;5.66;100.00
56038;BME280;41907;47.848;9.000;2024-03-06T02:57:27;95763.78;;;5.64;100.00
56038;BME280;41907;47.848;9.000;2024-03-06T02:59:56;95765.91;;;5.61;100.00
56038;BME280;41907;47.848;9.000;2024-03-06T03:02:22;95762.72;;;5.65;100.00
56038;BME280;41907;47.848;9.000;2024-03-06T03:04:48;95764.84;;;5.63;100.00
56038;BME280;41907;47.848;9.000;2024-03-06T03:07:14;95767.50;;;5.63;100.00
56038;BME280;41907;47.848;9.000;2024-03-06T03:09:39;95764.84;;;5.63;100.00
56038;BME280;41907;47.848;9.000;2024-03-06T03:12:05;95769.91;;;5.59;100.00
56038;BME280;41907;47.848;9.000;2024-03-06T03:14:30;95764.59;;;5.64;100.00
56038;BME280;41907;47.848;9.000;2024-03-06T03:16:56;95768.50;;;5.67;100.00
56038;BME280;41907;47.848;9.000;2024-03-06T03:19:22;95771.75;;;5.58;100.00
56038;BME280;41907;47.848;9.000;2024-03-06T03:21:47;95772.03;;;5.57;100.00
56038;BME280;41907;47.848;9.000;2024-03-06T03:24:13;95772.81;;;5.57;100.00
56038;BME280;41907;47.848;9.000;2024-03-06T03:26:38;95771.47;;;5.60;100.00
56038;BME280;41907;47.848;9.000;2024-03-06T03:29:04;95765.91;;;5.61;100.00
56038;BME280;41907;47.848;9.000;2024-03-06T03:31:30;95767.50;;;5.63;100.00
56038;BME280;41907;47.848;9.000;2024-03-06T03:33:55;95766.97;;;5.60;100.00
56038;BME280;41907;47.848;9.000;2024-03-06T03:36:21;95765.13;;;5.61;100.00
56038;BME280;41907;47.848;9.000;2024-03-06T03:38:46;95771.72;;;5.64;100.00
56038;BME280;41907;47.848;9.000;2024-03-06T03:41:12;95770.69;;;5.59;100.00
56038;BME280;41907;47.848;9.000;2024-03-06T03:43:41;95772.03;;;5.57;100.00
56038;BME280;41907;47.848;9.000;2024-03-06T03:46:06;95785.25;;;5.57;100.00
56038;BME280;41907;47.848;9.000;2024-03-06T03:48:32;95782.91;;;5.55;100.00
56038;BME280;41907;47.848;9.000;2024-03-06T03:51:03;95781.03;;;5.56;100.00
56038;BME280;41907;47.848;9.000;2024-03-06T03:53:35;95784.47;;;5.56;100.00
56038;BME280;41907;47.848;9.000;2024-03-06T03:56:01;95784.19;;;5.58;100.00
56038;BME280;41907;47.848;9.000;2024-03-06T03:58:28;95779.66;;;5.64;100.00
56038;BME280;41907;47.848;9.000;2024-03-06T04:00:53;95783.63;;;5.66;100.00
56038;BME280;41907;47.848;9.000;2024-03-06T04:03:20;95788.63;;;5.68;100.00
56038;BME280;41907;47.848;9.000;2024-03-06T04:05:49;95784.38;;;5.67;100.00
56038;BME280;41907;47.848;9.000;2024-03-06T04:08:15;95792.91;;;5.64;100.00
56038;BME280;41907;47.848;9.000;2024-03-06T04:10:42;95795.28;;;5.65;100.00
56038;BME280;41907;47.848;9.000;2024-03-06T04:13:10;95794.22;;;5.66;100.00
56038;BME280;41907;47.848;9.000;2024-03-06T04:15:35;95787.56;;;5.69;100.00
56038;BME280;41907;47.848;9.000;2024-03-06T04:18:01;95791.25;;;5.68;100.00
56038;BME280;41907;47.848;9.000;2024-03-06T04:20:26;95802.91;;;5.67;100.00
56038;BME280;41907;47.848;9.000;2024-03-06T04:22:52;95804.78;;;5.66;100.00
56038;BME280;41907;47.848;9.000;2024-03-06T04:25:17;95804.03;;;5.60;100.00
56038;BME280;41907;47.848;9.000;2024-03-06T04:27:43;95814.88;;;5.59;100.00
56038;BME280;41907;47.848;9.000;2024-03-06T04:30:09;95812.50;;;5.57;100.00
56038;BME280;41907;47.848;9.000;2024-03-06T04:32:34;95820.44;;;5.57;100.00
56038;BME280;41907;47.848;9.000;2024-03-06T04:35:00;95825.19;;;5.60;100.00
56038;BME280;41907;47.848;9.000;2024-03-06T04:37:25;95812.50;;;5.57;100.00
56038;BME280;41907;47.848;9.000;2024-03-06T04:39:52;95826.25;;;5.59;100.00
56038;BME280;41907;47.848;9.000;2024-03-06T04:42:17;95818.03;;;5.61;100.00
56038;BME280;41907;47.848;9.000;2024-03-06T04:44:42;95820.94;;;5.65;100.00
56038;BME280;41907;47.848;9.000;2024-03-06T04:47:08;95826.72;;;5.67;100.00
56038;BME280;41907;47.848;9.000;2024-03-06T04:49:33;95828.88;;;5.65;100.00
56038;BME280;41907;47.848;9.000;2024-03-06T04:51:59;95835.50;;;5.57;100.00
56038;BME280;41907;47.848;9.000;2024-03-06T04:54:25;95840.09;;;5.41;100.00
56038;BME280;41907;47.848;9.000;2024-03-06T04:56:51;95831.91;;;5.43;100.00
56038;BME280;41907;47.848;9.000;2024-03-06T04:59:16;95842.16;;;5.49;100.00
56038;BME280;41907;47.848;9.000;2024-03-06T05:01:41;95845.81;;;5.58;100.00
56038;BME280;41907;47.848;9.000;2024-03-06T05:04:08;95842.66;;;5.61;100.00
56038;BME280;41907;47.848;9.000;2024-03-06T05:06:34;95845.38;;;5.46;100.00
56038;BME280;41907;47.848;9.000;2024-03-06T05:09:00;95841.47;;;5.29;100.00
56038;BME280;41907;47.848;9.000;2024-03-06T05:11:26;95845.44;;;5.31;100.00
56038;BME280;41907;47.848;9.000;2024-03-06T05:13:51;95851.78;;;5.30;100.00
56038;BME280;41907;47.848;9.000;2024-03-06T05:16:16;95855.22;;;5.36;100.00
56038;BME280;41907;47.848;9.000;2024-03-06T05:18:42;95855.97;;;5.41;100.00
56038;BME280;41907;47.848;9.000;2024-03-06T05:21:08;95857.28;;;5.44;100.00
56038;BME280;41907;47.848;9.000;2024-03-06T05:23:33;95861.25;;;5.41;100.00
56038;BME280;41907;47.848;9.000;2024-03-06T05:25:59;95859.94;;;5.44;100.00
56038;BME280;41907;47.848;9.000;2024-03-06T05:28:24;95856.75;;;5.47;100.00
56038;BME280;41907;47.848;9.000;2024-03-06T05:30:50;95860.69;;;5.49;100.00
56038;BME280;41907;47.848;9.000;2024-03-06T05:33:15;95854.34;;;5.50;100.00
56038;BME280;41907;47.848;9.000;2024-03-06T05:35:41;95856.44;;;5.48;100.00
56038;BME280;41907;47.848;9.000;2024-03-06T05:38:07;95860.22;;;5.37;100.00
56038;BME280;41907;47.848;9.000;2024-03-06T05:40:33;95866.31;;;5.33;100.00
56038;BME280;41907;47.848;9.000;2024-03-06T05:43:02;95866.34;;;5.28;100.00
56038;BME280;41907;47.848;9.000;2024-03-06T05:45:28;95863.41;;;5.34;100.00
56038;BME280;41907;47.848;9.000;2024-03-06T05:47:54;95869.22;;;5.36;100.00
56038;BME280;41907;47.848;9.000;2024-03-06T05:50:19;95878.44;;;5.39;100.00
56038;BME280;41907;47.848;9.000;2024-03-06T05:52:44;95880.56;;;5.42;100.00
56038;BME280;41907;47.848;9.000;2024-03-06T05:55:10;95877.13;;;5.41;100.00
56038;BME280;41907;47.848;9.000;2024-03-06T05:57:35;95890.34;;;5.46;100.00
56038;BME280;41907;47.848;9.000;2024-03-06T06:00:01;95888.50;;;5.42;100.00
56038;BME280;41907;47.848;9.000;2024-03-06T06:02:27;95891.41;;;5.45;100.00
56038;BME280;41907;47.848;9.000;2024-03-06T06:04:52;95896.69;;;5.45;100.00
56038;BME280;41907;47.848;9.000;2024-03-06T06:07:18;95898.28;;;5.46;100.00
56038;BME280;41907;47.848;9.000;2024-03-06T06:09:43;95902.78;;;5.46;100.00
56038;BME280;41907;47.848;9.000;2024-03-06T06:12:08;95904.38;;;5.47;100.00
56038;BME280;41907;47.848;9.000;2024-03-06T06:14:34;95905.16;;;5.42;100.00
56038;BME280;41907;47.848;9.000;2024-03-06T06:16:59;95905.19;;;5.32;100.00
56038;BME280;41907;47.848;9.000;2024-03-06T06:19:25;95907.28;;;5.40;100.00
56038;BME280;41907;47.848;9.000;2024-03-06T06:21:54;95900.66;;;5.43;100.00
56038;BME280;41907;47.848;9.000;2024-03-06T06:24:19;95907.81;;;5.42;100.00
56038;BME280;41907;47.848;9.000;2024-03-06T06:26:45;95908.63;;;5.38;100.00
56038;BME280;41907;47.848;9.000;2024-03-06T06:29:10;95911.28;;;5.38;100.00
56038;BME280;41907;47.848;9.000;2024-03-06T06:31:36;95907.56;;;5.34;100.00
56038;BME280;41907;47.848;9.000;2024-03-06T06:34:01;95917.06;;;5.40;100.00
56038;BME280;41907;47.848;9.000;2024-03-06T06:36:26;95911.56;;;5.26;100.00
56038;BME280;41907;47.848;9.000;2024-03-06T06:38:53;95915.28;;;5.25;100.00
56038;BME280;41907;47.848;9.000;2024-03-06T06:41:19;95922.13;;;5.36;100.00
56038;BME280;41907;47.848;9.000;2024-03-06T06:43:45;95918.91;;;5.39;100.00
56038;BME280;41907;47.848;9.000;2024-03-06T06:46:10;95921.81;;;5.43;100.00
56038;BME280;41907;47.848;9.000;2024-03-06T06:48:36;95920.75;;;5.44;100.00
56038;BME280;41907;47.848;9.000;2024-03-06T06:51:01;95923.69;;;5.42;100.00
56038;BME280;41907;47.848;9.000;2024-03-06T06:53:30;95923.16;;;5.40;100.00
56038;BME280;41907;47.848;9.000;2024-03-06T06:55:56;95928.16;;;5.42;100.00
56038;BME280;41907;47.848;9.000;2024-03-06T06:58:22;95918.66;;;5.46;100.00
56038;BME280;41907;47.848;9.000;2024-03-06T07:00:48;95919.16;;;5.53;100.00
56038;BME280;41907;47.848;9.000;2024-03-06T07:03:13;95911.22;;;5.53;100.00
56038;BME280;41907;47.848;9.000;2024-03-06T07:05:38;95926.28;;;5.52;100.00
56038;BME280;41907;47.848;9.000;2024-03-06T07:08:04;95919.09;;;5.58;100.00
56038;BME280;41907;47.848;9.000;2024-03-06T07:10:30;95922.81;;;5.62;100.00
56038;BME280;41907;47.848;9.000;2024-03-06T07:12:55;95927.84;;;5.64;100.00
56038;BME280;41907;47.848;9.000;2024-03-06T07:15:20;95933.88;;;5.69;100.00
56038;BME280;41907;47.848;9.000;2024-03-06T07:17:46;95937.81;;;5.77;100.00
56038;BME280;41907;47.848;9.000;2024-03-06T07:20:12;95937.28;;;5.80;100.00
56038;BME280;41907;47.848;9.000;2024-03-06T07:22:37;95941.00;;;5.79;100.00
56038;BME280;41907;47.848;9.000;2024-03-06T07:25:02;95938.84;;;5.86;100.00
56038;BME280;41907;47.848;9.000;2024-03-06T07:27:28;95941.47;;;5.86;100.00
56038;BME280;41907;47.848;9.000;2024-03-06T07:29:53;95936.75;;;5.83;100.00
56038;BME280;41907;47.848;9.000;2024-03-06T07:32:19;95940.69;;;5.85;100.00
56038;BME280;41907;47.848;9.000;2024-03-06T07:34:45;95938.84;;;5.91;100.00
56038;BME280;41907;47.848;9.000;2024-03-06T07:37:10;95952.88;;;5.91;100.00
56038;BME280;41907;47.848;9.000;2024-03-06T07:39:35;95951.03;;;5.92;100.00
56038;BME280;41907;47.848;9.000;2024-03-06T07:42:01;95948.59;;;6.01;100.00
56038;BME280;41907;47.848;9.000;2024-03-06T07:44:26;95954.38;;;6.08;100.00
56038;BME280;41907;47.848;9.000;2024-03-06T07:46:51;95954.38;;;6.08;100.00
56038;BME280;41907;47.848;9.000;2024-03-06T07:49:18;95953.59;;;6.07;100.00
56038;BME280;41907;47.848;9.000;2024-03-06T07:51:44;95953.06;;;6.05;100.00
56038;BME280;41907;47.848;9.000;2024-03-06T07:54:09;95960.72;;;6.12;100.00
56038;BME280;41907;47.848;9.000;2024-03-06T07:56:34;95972.66;;;6.04;100.00
56038;BME280;41907;47.848;9.000;2024-03-06T07:59:00;95967.63;;;6.08;100.00
56038;BME280;41907;47.848;9.000;2024-03-06T08:01:26;95962.00;;;6.14;100.00
56038;BME280;41907;47.848;9.000;2024-03-06T08:03:54;95963.00;;;6.28;100.00
56038;BME280;41907;47.848;9.000;2024-03-06T08:06:20;95970.41;;;6.31;100.00
56038;BME280;41907;47.848;9.000;2024-03-06T08:08:45;95981.25;;;6.35;100.00
56038;BME280;41907;47.848;9.000;2024-03-06T08:11:11;95985.72;;;6.40;100.00
56038;BME280;41907;47.848;9.000;2024-03-06T08:13:37;95980.44;;;6.40;100.00
56038;BME280;41907;47.848;9.000;2024-03-06T08:16:04;95988.34;;;6.45;100.00
56038;BME280;41907;47.848;9.000;2024-03-06T08:18:30;95992.03;;;6.44;100.00
56038;BME280;41907;47.848;9.000;2024-03-06T08:20:56;95989.97;;;6.41;100.00
56038;BME280;41907;47.848;9.000;2024-03-06T08:23:21;95978.53;;;6.45;100.00
56038;BME280;41907;47.848;9.000;2024-03-06T08:25:46;95984.41;;;6.37;100.00
56038;BME280;41907;47.848;9.000;2024-03-06T08:28:12;95990.47;;;6.43;100.00
56038;BME280;41907;47.848;9.000;2024-03-06T08:30:37;95987.88;;;6.32;100.00
56038;BME280;41907;47.848;9.000;2024-03-06T08:33:02;95990.03;;;6.30;100.00
56038;BME280;41907;47.848;9.000;2024-03-06T08:35:29;95991.31;;;6.33;100.00
56038;BME280;41907;47.848;9.000;2024-03-06T08:37:54;95994.00;;;6.28;100.00
56038;BME280;41907;47.848;9.000;2024-03-06T08:40:20;95992.50;;;6.12;100.00
56038;BME280;41907;47.848;9.000;2024-03-06T08:42:49;95994.00;;;6.28;100.00
56038;BME280;41907;47.848;9.000;2024-03-06T08:45:18;95982.81;;;6.41;100.00
56038;BME280;41907;47.848;9.000;2024-03-06T08:47:47;95982.44;;;6.53;100.00
56038;BME280;41907;47.848;9.000;2024-03-06T08:50:13;95985.81;;;6.63;100.00
56038;BME280;41907;47.848;9.000;2024-03-06T08:52:39;95992.91;;;6.73;100.00
56038;BME280;41907;47.848;9.000;2024-03-06T08:55:05;95996.28;;;6.84;100.00
56038;BME280;41907;47.848;9.000;2024-03-06T08:57:34;95990.72;;;6.85;100.00
56038;BME280;41907;47.848;9.000;2024-03-06T08:59:59;95997.63;;;6.81;100.00
56038;BME280;41907;47.848;9.000;2024-03-06T09:02:25;95995.03;;;6.76;100.00
56038;BME280;41907;47.848;9.000;2024-03-06T09:04:51;95997.28;;;6.93;100.00
56038;BME280;41907;47.848;9.000;2024-03-06T09:07:17;95994.28;;;6.99;100.00
56038;BME280;41907;47.848;9.000;2024-03-06T09:09:43;96002.97;;;7.10;100.00
56038;BME280;41907;47.848;9.000;2024-03-06T09:12:09;96001.56;;;7.18;100.00
56038;BME280;41907;47.848;9.000;2024-03-06T09:14:40;95997.28;;;7.22;100.00
56038;BME280;41907;47.848;9.000;2024-03-06T09:17:06;96003.63;;;7.26;100.00
56038;BME280;41907;47.848;9.000;2024-03-06T09:19:34;95999.84;;;7.32;100.00
56038;BME280;41907;47.848;9.000;2024-03-06T09:22:00;95997.09;;;7.42;100.00
56038;BME280;41907;47.848;9.000;2024-03-06T09:24:25;96004.03;;;7.38;100.00
56038;BME280;41907;47.848;9.000;2024-03-06T09:26:52;95997.56;;;7.49;100.00
56038;BME280;41907;47.848;9.000;2024-03-06T09:29:18;95995.19;;;7.47;100.00
56038;BME280;41907;47.848;9.000;2024-03-06T09:31:44;96002.84;;;7.54;100.00
56038;BME280;41907;47.848;9.000;2024-03-06T09:34:10;96006.38;;;7.44;100.00
56038;BME280;41907;47.848;9.000;2024-03-06T09:36:40;96001.38;;;7.38;100.00
56038;BME280;41907;47.848;9.000;2024-03-06T09:39:13;96014.16;;;7.36;100.00
56038;BME280;41907;47.848;9.000;2024-03-06T09:41:41;96015.31;;;7.25;100.00
56038;BME280;41907;47.848;9.000;2024-03-06T09:44:07;96014.53;;;7.24;100.00
56038;BME280;41907;47.848;9.000;2024-03-06T09:46:35;96011.28;;;7.27;100.00
56038;BME280;41907;47.848;9.000;2024-03-06T09:49:02;96007.81;;;7.32;100.00
56038;BME280;41907;47.848;9.000;2024-03-06T09:51:28;96013.03;;;7.42;100.00
56038;BME280;41907;47.848;9.000;2024-03-06T09:53:53;96021.72;;;7.47;100.00
56038;BME280;41907;47.848;9.000;2024-03-06T09:56:19;96023.50;;;7.28;100.00
56038;BME280;41907;47.848;9.000;2024-03-06T09:58:47;96020.22;;;7.36;100.00
56038;BME280;41907;47.848;9.000;2024-03-06T10:01:14;96023.75;;;7.32;100.00
56038;BME280;41907;47.848;9.000;2024-03-06T10:03:40;96019.22;;;7.32;100.00
56038;BME280;41907;47.848;9.000;2024-03-06T10:06:08;96017.81;;;7.40;100.00
56038;BME280;41907;47.848;9.000;2024-03-06T10:08:34;96029.38;;;7.25;100.00
56038;BME280;41907;47.848;9.000;2024-03-06T10:11:00;96033.81;;;7.30;100.00
56038;BME280;41907;47.848;9.000;2024-03-06T10:13:26;96031.69;;;7.32;100.00
56038;BME280;41907;47.848;9.000;2024-03-06T10:16:00;96039.31;;;7.38;100.00
56038;BME280;41907;47.848;9.000;2024-03-06T10:18:29;96036.25;;;7.26;100.00
56038;BME280;41907;47.848;9.000;2024-03-06T10:20:56;96037.03;;;7.27;100.00
56038;BME280;41907;47.848;9.000;2024-03-06T10:23:21;96043.91;;;7.33;100.00
56038;BME280;41907;47.848;9.000;2024-03-06T10:25:47;96036.44;;;7.35;100.00
56038;BME280;41907;47.848;9.000;2024-03-06T10:28:20;96038.13;;;7.26;100.00
56038;BME280;41907;47.848;9.000;2024-03-06T10:30:48;96044.09;;;7.36;100.00
56038;BME280;41907;47.848;9.000;2024-03-06T10:33:14;96041.69;;;7.40;100.00
56038;BME280;41907;47.848;9.000;2024-03-06T10:35:41;96046.47;;;7.43;100.00
56038;BME280;41907;47.848;9.000;2024-03-06T10:38:08;96042.75;;;7.44;100.00
56038;BME280;41907;47.848;9.000;2024-03-06T10:40:36;96042.41;;;7.51;100.00
56038;BME280;41907;47.848;9.000;2024-03-06T10:43:03;96040.25;;;7.53;100.00
56038;BME280;41907;47.848;9.000;2024-03-06T10:48:08;96042.91;;;7.53;100.00
56038;BME280;41907;47.848;9.000;2024-03-06T10:50:38;96045.59;;;7.47;100.00
56038;BME280;41907;47.848;9.000;2024-03-06T10:53:05;96040.69;;;7.36;100.00
56038;BME280;41907;47.848;9.000;2024-03-06T10:55:34;96052.84;;;7.42;100.00
56038;BME280;41907;47.848;9.000;2024-03-06T10:58:00;96050.53;;;7.30;100.00
56038;BME280;41907;47.848;9.000;2024-03-06T11:00:26;96048.22;;;7.24;100.00
56038;BME280;41907;47.848;9.000;2024-03-06T11:02:55;96048.22;;;7.24;100.00
56038;BME280;41907;47.848;9.000;2024-03-06T11:05:21;96047.19;;;7.20;100.00
56038;BME280;41907;47.848;9.000;2024-03-06T11:07:46;96050.69;;;7.15;100.00
56038;BME280;41907;47.848;9.000;2024-03-06T11:10:12;96052.94;;;7.27;100.00
56038;BME280;41907;47.848;9.000;2024-03-06T11:12:42;96046.56;;;7.28;100.00
56038;BME280;41907;47.848;9.000;2024-03-06T11:17:38;96044.88;;;7.42;100.00
56038;BME280;41907;47.848;9.000;2024-03-06T11:28:19;96053.75;;;7.27;100.00
56038;BME280;41907;47.848;9.000;2024-03-06T11:30:58;96054.50;;;7.33;100.00
56038;BME280;41907;47.848;9.000;2024-03-06T11:33:28;96053.47;;;7.29;100.00
56038;BME280;41907;47.848;9.000;2024-03-06T11:36:16;96057.16;;;6.99;100.00
56038;BME280;41907;47.848;9.000;2024-03-06T11:41:27;96045.84;;;7.22;100.00
56038;BME280;41907;47.848;9.000;2024-03-06T11:43:54;96050.50;;;7.35;100.00
56038;BME280;41907;47.848;9.000;2024-03-06T11:46:21;96049.38;;;7.41;100.00
56038;BME280;41907;47.848;9.000;2024-03-06T11:48:56;96040.13;;;7.39;100.00
56038;BME280;41907;47.848;9.000;2024-03-06T11:51:23;96050.69;;;7.44;100.00
56038;BME280;41907;47.848;9.000;2024-03-06T11:53:51;96037.63;;;7.53;100.00
56038;BME280;41907;47.848;9.000;2024-03-06T11:56:20;96044.19;;;7.55;100.00
56038;BME280;41907;47.848;9.000;2024-03-06T11:58:46;96047.25;;;7.43;100.00
56038;BME280;41907;47.848;9.000;2024-03-06T12:01:13;96049.00;;;7.24;100.00
56038;BME280;41907;47.848;9.000;2024-03-06T12:03:39;96045.72;;;7.03;100.00
56038;BME280;41907;47.848;9.000;2024-03-06T12:06:05;96046.78;;;7.02;100.00
56038;BME280;41907;47.848;9.000;2024-03-06T12:08:31;96051.16;;;7.17;100.00
56038;BME280;41907;47.848;9.000;2024-03-06T12:10:56;96050.03;;;7.28;100.00
56038;BME280;41907;47.848;9.000;2024-03-06T12:13:24;96041.88;;;7.20;100.00
56038;BME280;41907;47.848;9.000;2024-03-06T12:15:49;96048.50;;;7.22;100.00
56038;BME280;41907;47.848;9.000;2024-03-06T12:18:17;96045.78;;;7.27;100.00
56038;BME280;41907;47.848;9.000;2024-03-06T12:20:43;96039.38;;;7.33;100.00
56038;BME280;41907;47.848;9.000;2024-03-06T12:23:19;96039.91;;;7.35;100.00
56038;BME280;41907;47.848;9.000;2024-03-06T12:25:45;96053.44;;;7.34;100.00
56038;BME280;41907;47.848;9.000;2024-03-06T12:28:11;96056.63;;;7.36;100.00
56038;BME280;41907;47.848;9.000;2024-03-06T12:30:41;96057.25;;;7.23;100.00
56038;BME280;41907;47.848;9.000;2024-03-06T12:33:08;96061.94;;;7.31;100.00
56038;BME280;41907;47.848;9.000;2024-03-06T12:35:33;96057.25;;;7.23;100.00
56038;BME280;41907;47.848;9.000;2024-03-06T12:37:59;96052.66;;;7.28;100.00
56038;BME280;41907;47.848;9.000;2024-03-06T12:40:25;96050.81;;;7.29;100.00
56038;BME280;41907;47.848;9.000;2024-03-06T12:42:50;96046.38;;;7.19;100.00
56038;BME280;41907;47.848;9.000;2024-03-06T12:45:17;96055.13;;;7.25;100.00
56038;BME280;41907;47.848;9.000;2024-03-06T12:47:43;96040.72;;;7.31;100.00
56038;BME280;41907;47.848;9.000;2024-03-06T12:50:11;96039.38;;;7.33;100.00
56038;BME280;41907;47.848;9.000;2024-03-06T12:52:37;96044.16;;;7.31;100.00
56038;BME280;41907;47.848;9.000;2024-03-06T12:55:03;96046.53;;;7.33;100.00
56038;BME280;41907;47.848;9.000;2024-03-06T12:57:31;96050.88;;;7.24;100.00
56038;BME280;41907;47.848;9.000;2024-03-06T12:59:56;96049.22;;;7.28;100.00
56038;BME280;41907;47.848;9.000;2024-03-06T13:02:21;96041.84;;;7.25;100.00
56038;BME280;41907;47.848;9.000;2024-03-06T13:04:47;96042.31;;;7.32;100.00
56038;BME280;41907;47.848;9.000;2024-03-06T13:07:12;96037.34;;;7.25;100.00
56038;BME280;41907;47.848;9.000;2024-03-06T13:09:37;96045.28;;;7.25;100.00
56038;BME280;41907;47.848;9.000;2024-03-06T13:12:04;96041.28;;;7.28;100.00